sensor_id;sensor_type;location;lat;lon;timestamp;pressure;altitude;pressure_sealevel;temperature
48894;BMP280;34710;35.798;139.446;2023-06-10T00:01:58;100277.57;;;27.09
48894;BMP280;34710;35.798;139.446;2023-06-10T00:04:22;100286.09;;;26.35
48894;BMP280;34710;35.798;139.446;2023-06-10T00:06:48;100284.23;;;27.48
48894;BMP280;34710;35.798;139.446;2023-06-10T00:09:14;100279.85;;;27.51
48894;BMP280;34710;35.798;139.446;2023-06-10T00:11:39;100279.92;;;26.51
48894;BMP280;34710;35.798;139.446;2023-06-10T00:14:04;100282.13;;;26.89
48894;BMP280;34710;35.798;139.446;2023-06-10T00:16:29;100286.21;;;26.71
48894;BMP280;34710;35.798;139.446;2023-06-10T00:18:54;100283.38;;;27.35
48894;BMP280;34710;35.798;139.446;2023-06-10T00:21:20;100285.24;;;27.61
48894;BMP280;34710;35.798;139.446;2023-06-10T00:23:44;100285.31;;;28.32
48894;BMP280;34710;35.798;139.446;2023-06-10T00:26:10;100281.53;;;28.06
48894;BMP280;34710;35.798;139.446;2023-06-10T00:28:35;100285.56;;;28.15
48894;BMP280;34710;35.798;139.446;2023-06-10T00:31:00;100288.36;;;26.53
48894;BMP280;34710;35.798;139.446;2023-06-10T00:33:25;100283.51;;;27.07
48894;BMP280;34710;35.798;139.446;2023-06-10T00:35:50;100287.04;;;26.88
48894;BMP280;34710;35.798;139.446;2023-06-10T00:38:15;100294.39;;;25.66
48894;BMP280;34710;35.798;139.446;2023-06-10T00:40:41;100299.33;;;26.53
48894;BMP280;34710;35.798;139.446;2023-06-10T00:43:06;100295.92;;;26.58
48894;BMP280;34710;35.798;139.446;2023-06-10T00:45:31;100294.42;;;27.16
48894;BMP280;34710;35.798;139.446;2023-06-10T00:47:56;100290.56;;;27.07
48894;BMP280;34710;35.798;139.446;2023-06-10T00:50:21;100290.39;;;26.70
48894;BMP280;34710;35.798;139.446;2023-06-10T00:52:46;100288.84;;;26.86
48894;BMP280;34710;35.798;139.446;2023-06-10T00:55:11;100287.17;;;27.39
48894;BMP280;34710;35.798;139.446;2023-06-10T00:57:36;100287.72;;;27.66
48894;BMP280;34710;35.798;139.446;2023-06-10T01:00:01;100287.01;;;27.66
48894;BMP280;34710;35.798;139.446;2023-06-10T01:02:28;100289.69;;;27.27
48894;BMP280;34710;35.798;139.446;2023-06-10T01:04:52;100287.66;;;27.69
48894;BMP280;34710;35.798;139.446;2023-06-10T01:07:23;100277.71;;;27.98
48894;BMP280;34710;35.798;139.446;2023-06-10T01:09:49;100274.80;;;28.88
48894;BMP280;34710;35.798;139.446;2023-06-10T01:12:14;100277.68;;;29.03
48894;BMP280;34710;35.798;139.446;2023-06-10T01:14:32;100277.83;;;28.64
48894;BMP280;34710;35.798;139.446;2023-06-10T01:16:58;100280.92;;;26.35
48894;BMP280;34710;35.798;139.446;2023-06-10T01:19:22;100278.46;;;27.97
48894;BMP280;34710;35.798;139.446;2023-06-10T01:21:47;100283.28;;;28.36
48894;BMP280;34710;35.798;139.446;2023-06-10T01:24:12;100278.00;;;27.88
48894;BMP280;34710;35.798;139.446;2023-06-10T01:26:38;100273.18;;;26.59
48894;BMP280;34710;35.798;139.446;2023-06-10T01:29:06;100270.15;;;27.07
48894;BMP280;34710;35.798;139.446;2023-06-10T01:31:33;100268.01;;;28.54
48894;BMP280;34710;35.798;139.446;2023-06-10T01:33:54;100273.29;;;28.26
48894;BMP280;34710;35.798;139.446;2023-06-10T01:36:19;100271.59;;;28.26
48894;BMP280;34710;35.798;139.446;2023-06-10T01:38:45;100275.56;;;27.93
48894;BMP280;34710;35.798;139.446;2023-06-10T01:41:08;100269.29;;;28.34
48894;BMP280;34710;35.798;139.446;2023-06-10T01:43:34;100261.91;;;28.27
48894;BMP280;34710;35.798;139.446;2023-06-10T01:45:58;100265.79;;;27.92
48894;BMP280;34710;35.798;139.446;2023-06-10T01:48:24;100281.28;;;26.28
48894;BMP280;34710;35.798;139.446;2023-06-10T01:50:49;100284.43;;;26.86
48894;BMP280;34710;35.798;139.446;2023-06-10T01:53:14;100279.54;;;29.13
48894;BMP280;34710;35.798;139.446;2023-06-10T01:55:39;100271.79;;;29.71
48894;BMP280;34710;35.798;139.446;2023-06-10T01:58:04;100274.51;;;30.13
48894;BMP280;34710;35.798;139.446;2023-06-10T02:00:28;100279.09;;;30.69
48894;BMP280;34710;35.798;139.446;2023-06-10T02:02:54;100272.21;;;30.48
48894;BMP280;34710;35.798;139.446;2023-06-10T02:05:19;100269.45;;;28.63
48894;BMP280;34710;35.798;139.446;2023-06-10T02:07:44;100278.63;;;30.50
48894;BMP280;34710;35.798;139.446;2023-06-10T02:10:09;100278.31;;;30.10
48894;BMP280;34710;35.798;139.446;2023-06-10T02:12:34;100270.63;;;30.40
48894;BMP280;34710;35.798;139.446;2023-06-10T02:14:59;100266.34;;;30.48
48894;BMP280;34710;35.798;139.446;2023-06-10T02:17:24;100268.87;;;30.42
48894;BMP280;34710;35.798;139.446;2023-06-10T02:19:49;100259.64;;;28.52
48894;BMP280;34710;35.798;139.446;2023-06-10T02:22:14;100245.96;;;30.88
48894;BMP280;34710;35.798;139.446;2023-06-10T02:24:39;100235.87;;;32.04
48894;BMP280;34710;35.798;139.446;2023-06-10T02:27:05;100242.64;;;31.50
48894;BMP280;34710;35.798;139.446;2023-06-10T02:29:29;100241.23;;;32.08
48894;BMP280;34710;35.798;139.446;2023-06-10T02:31:54;100241.34;;;31.96
48894;BMP280;34710;35.798;139.446;2023-06-10T02:34:19;100244.51;;;30.59
48894;BMP280;34710;35.798;139.446;2023-06-10T02:36:44;100238.77;;;28.90
48894;BMP280;34710;35.798;139.446;2023-06-10T02:39:09;100233.03;;;27.91
48894;BMP280;34710;35.798;139.446;2023-06-10T02:41:34;100237.46;;;27.52
48894;BMP280;34710;35.798;139.446;2023-06-10T02:43:59;100245.84;;;28.80
48894;BMP280;34710;35.798;139.446;2023-06-10T02:46:24;100245.28;;;28.97
48894;BMP280;34710;35.798;139.446;2023-06-10T02:48:50;100245.03;;;28.45
48894;BMP280;34710;35.798;139.446;2023-06-10T02:51:15;100246.42;;;27.51
48894;BMP280;34710;35.798;139.446;2023-06-10T02:53:40;100237.80;;;28.72
48894;BMP280;34710;35.798;139.446;2023-06-10T02:56:05;100233.38;;;28.83
48894;BMP280;34710;35.798;139.446;2023-06-10T02:58:30;100235.83;;;26.30
48894;BMP280;34710;35.798;139.446;2023-06-10T03:00:55;100246.89;;;28.90
48894;BMP280;34710;35.798;139.446;2023-06-10T03:03:20;100244.92;;;29.29
48894;BMP280;34710;35.798;139.446;2023-06-10T03:05:45;100243.46;;;29.84
48894;BMP280;34710;35.798;139.446;2023-06-10T03:08:10;100244.93;;;29.30
48894;BMP280;34710;35.798;139.446;2023-06-10T03:10:36;100252.59;;;29.17
48894;BMP280;34710;35.798;139.446;2023-06-10T03:13:00;100262.28;;;30.51
48894;BMP280;34710;35.798;139.446;2023-06-10T03:15:26;100261.01;;;30.05
48894;BMP280;34710;35.798;139.446;2023-06-10T03:17:51;100249.35;;;27.65
48894;BMP280;34710;35.798;139.446;2023-06-10T03:20:16;100244.00;;;28.70
48894;BMP280;34710;35.798;139.446;2023-06-10T03:22:41;100234.41;;;27.66
48894;BMP280;34710;35.798;139.446;2023-06-10T03:25:07;100219.75;;;26.62
48894;BMP280;34710;35.798;139.446;2023-06-10T03:27:31;100215.82;;;25.95
48894;BMP280;34710;35.798;139.446;2023-06-10T03:29:56;100212.59;;;27.17
48894;BMP280;34710;35.798;139.446;2023-06-10T03:32:21;100217.57;;;26.43
48894;BMP280;34710;35.798;139.446;2023-06-10T03:34:46;100221.57;;;26.81
48894;BMP280;34710;35.798;139.446;2023-06-10T03:37:12;100215.70;;;27.38
48894;BMP280;34710;35.798;139.446;2023-06-10T03:39:38;100216.01;;;26.48
48894;BMP280;34710;35.798;139.446;2023-06-10T03:42:03;100219.08;;;26.60
48894;BMP280;34710;35.798;139.446;2023-06-10T03:44:27;100222.07;;;27.26
48894;BMP280;34710;35.798;139.446;2023-06-10T03:46:52;100227.67;;;27.56
48894;BMP280;34710;35.798;139.446;2023-06-10T03:49:17;100226.25;;;27.04
48894;BMP280;34710;35.798;139.446;2023-06-10T03:51:43;100231.50;;;25.97
48894;BMP280;34710;35.798;139.446;2023-06-10T03:54:08;100230.92;;;25.21
48894;BMP280;34710;35.798;139.446;2023-06-10T03:56:32;100220.37;;;26.46
48894;BMP280;34710;35.798;139.446;2023-06-10T03:58:58;100216.75;;;26.77
48894;BMP280;34710;35.798;139.446;2023-06-10T04:01:23;100210.28;;;27.71
48894;BMP280;34710;35.798;139.446;2023-06-10T04:03:49;100217.74;;;28.66
48894;BMP280;34710;35.798;139.446;2023-06-10T04:06:14;100220.76;;;28.55
48894;BMP280;34710;35.798;139.446;2023-06-10T04:08:40;100223.44;;;28.65
48894;BMP280;34710;35.798;139.446;2023-06-10T04:11:05;100225.41;;;28.76
48894;BMP280;34710;35.798;139.446;2023-06-10T04:13:30;100227.98;;;29.43
48894;BMP280;34710;35.798;139.446;2023-06-10T04:15:55;100229.09;;;29.51
48894;BMP280;34710;35.798;139.446;2023-06-10T04:18:20;100221.66;;;29.38
48894;BMP280;34710;35.798;139.446;2023-06-10T04:20:46;100210.70;;;30.04
48894;BMP280;34710;35.798;139.446;2023-06-10T04:23:10;100198.46;;;30.43
48894;BMP280;34710;35.798;139.446;2023-06-10T04:25:36;100196.31;;;31.28
48894;BMP280;34710;35.798;139.446;2023-06-10T04:28:01;100198.39;;;29.64
48894;BMP280;34710;35.798;139.446;2023-06-10T04:30:26;100198.39;;;29.51
48894;BMP280;34710;35.798;139.446;2023-06-10T04:32:51;100208.95;;;29.74
48894;BMP280;34710;35.798;139.446;2023-06-10T04:35:17;100217.80;;;30.09
48894;BMP280;34710;35.798;139.446;2023-06-10T04:37:42;100218.13;;;27.74
48894;BMP280;34710;35.798;139.446;2023-06-10T04:40:08;100222.64;;;28.02
48894;BMP280;34710;35.798;139.446;2023-06-10T04:42:32;100220.78;;;28.58
48894;BMP280;34710;35.798;139.446;2023-06-10T04:44:57;100221.40;;;29.98
48894;BMP280;34710;35.798;139.446;2023-06-10T04:47:22;100228.00;;;28.21
48894;BMP280;34710;35.798;139.446;2023-06-10T04:49:47;100223.90;;;28.39
48894;BMP280;34710;35.798;139.446;2023-06-10T04:52:13;100218.08;;;29.22
48894;BMP280;34710;35.798;139.446;2023-06-10T04:54:39;100216.96;;;28.22
48894;BMP280;34710;35.798;139.446;2023-06-10T04:57:04;100215.76;;;29.38
48894;BMP280;34710;35.798;139.446;2023-06-10T04:59:28;100205.42;;;27.54
48894;BMP280;34710;35.798;139.446;2023-06-10T05:01:54;100201.35;;;28.01
48894;BMP280;34710;35.798;139.446;2023-06-10T05:04:19;100201.57;;;27.79
48894;BMP280;34710;35.798;139.446;2023-06-10T05:06:44;100213.19;;;26.77
48894;BMP280;34710;35.798;139.446;2023-06-10T05:09:10;100219.71;;;27.28
48894;BMP280;34710;35.798;139.446;2023-06-10T05:11:35;100217.18;;;28.58
48894;BMP280;34710;35.798;139.446;2023-06-10T05:14:00;100220.45;;;27.88
48894;BMP280;34710;35.798;139.446;2023-06-10T05:16:26;100220.79;;;27.79
48894;BMP280;34710;35.798;139.446;2023-06-10T05:18:52;100225.98;;;27.48
48894;BMP280;34710;35.798;139.446;2023-06-10T05:21:16;100226.33;;;27.07
48894;BMP280;34710;35.798;139.446;2023-06-10T05:23:42;100225.85;;;27.00
48894;BMP280;34710;35.798;139.446;2023-06-10T05:26:08;100234.41;;;26.35
48894;BMP280;34710;35.798;139.446;2023-06-10T05:28:33;100240.64;;;25.37
48894;BMP280;34710;35.798;139.446;2023-06-10T05:30:59;100236.43;;;25.79
48894;BMP280;34710;35.798;139.446;2023-06-10T05:33:23;100241.06;;;25.70
48894;BMP280;34710;35.798;139.446;2023-06-10T05:35:49;100248.05;;;26.36
48894;BMP280;34710;35.798;139.446;2023-06-10T05:38:14;100248.96;;;26.09
48894;BMP280;34710;35.798;139.446;2023-06-10T05:40:40;100247.13;;;26.02
48894;BMP280;34710;35.798;139.446;2023-06-10T05:43:05;100258.23;;;25.81
48894;BMP280;34710;35.798;139.446;2023-06-10T05:45:30;100261.08;;;26.09
48894;BMP280;34710;35.798;139.446;2023-06-10T05:47:56;100262.67;;;25.02
48894;BMP280;34710;35.798;139.446;2023-06-10T05:50:21;100268.25;;;24.70
48894;BMP280;34710;35.798;139.446;2023-06-10T05:52:46;100275.37;;;25.34
48894;BMP280;34710;35.798;139.446;2023-06-10T05:55:11;100272.08;;;24.80
48894;BMP280;34710;35.798;139.446;2023-06-10T05:57:36;100271.79;;;24.90
48894;BMP280;34710;35.798;139.446;2023-06-10T06:00:02;100263.81;;;26.61
48894;BMP280;34710;35.798;139.446;2023-06-10T06:02:28;100266.88;;;26.15
48894;BMP280;34710;35.798;139.446;2023-06-10T06:04:53;100267.47;;;26.18
48894;BMP280;34710;35.798;139.446;2023-06-10T06:07:19;100258.63;;;23.95
48894;BMP280;34710;35.798;139.446;2023-06-10T06:09:44;100255.04;;;25.51
48894;BMP280;34710;35.798;139.446;2023-06-10T06:12:10;100256.52;;;26.18
48894;BMP280;34710;35.798;139.446;2023-06-10T06:14:39;100250.70;;;26.61
48894;BMP280;34710;35.798;139.446;2023-06-10T06:17:01;100246.73;;;25.62
48894;BMP280;34710;35.798;139.446;2023-06-10T06:19:26;100245.87;;;24.45
48894;BMP280;34710;35.798;139.446;2023-06-10T06:21:52;100247.32;;;26.11
48894;BMP280;34710;35.798;139.446;2023-06-10T06:24:17;100247.35;;;26.36
48894;BMP280;34710;35.798;139.446;2023-06-10T06:26:43;100255.38;;;26.43
48894;BMP280;34710;35.798;139.446;2023-06-10T06:29:08;100258.75;;;25.70
48894;BMP280;34710;35.798;139.446;2023-06-10T06:31:34;100250.85;;;26.04
48894;BMP280;34710;35.798;139.446;2023-06-10T06:33:59;100246.88;;;25.53
48894;BMP280;34710;35.798;139.446;2023-06-10T06:36:24;100238.61;;;26.13
48894;BMP280;34710;35.798;139.446;2023-06-10T06:38:51;100230.34;;;25.26
48894;BMP280;34710;35.798;139.446;2023-06-10T06:41:16;100228.38;;;25.33
48894;BMP280;34710;35.798;139.446;2023-06-10T06:43:42;100222.59;;;25.34
48894;BMP280;34710;35.798;139.446;2023-06-10T06:46:07;100218.59;;;25.52
48894;BMP280;34710;35.798;139.446;2023-06-10T06:48:32;100219.52;;;25.42
48894;BMP280;34710;35.798;139.446;2023-06-10T06:50:58;100214.62;;;25.43
48894;BMP280;34710;35.798;139.446;2023-06-10T06:53:24;100215.24;;;25.41
48894;BMP280;34710;35.798;139.446;2023-06-10T06:55:49;100213.04;;;25.41
48894;BMP280;34710;35.798;139.446;2023-06-10T06:58:14;100211.26;;;24.65
48894;BMP280;34710;35.798;139.446;2023-06-10T07:00:40;100207.07;;;26.43
48894;BMP280;34710;35.798;139.446;2023-06-10T07:03:05;100207.19;;;26.59
48894;BMP280;34710;35.798;139.446;2023-06-10T07:05:30;100207.58;;;27.59
48894;BMP280;34710;35.798;139.446;2023-06-10T07:07:56;100216.81;;;25.23
48894;BMP280;34710;35.798;139.446;2023-06-10T07:10:21;100221.55;;;25.02
48894;BMP280;34710;35.798;139.446;2023-06-10T07:12:46;100219.99;;;25.48
48894;BMP280;34710;35.798;139.446;2023-06-10T07:15:12;100228.30;;;25.04
48894;BMP280;34710;35.798;139.446;2023-06-10T07:17:36;100230.74;;;24.91
48894;BMP280;34710;35.798;139.446;2023-06-10T07:20:02;100227.46;;;25.12
48894;BMP280;34710;35.798;139.446;2023-06-10T07:22:27;100221.98;;;24.65
48894;BMP280;34710;35.798;139.446;2023-06-10T07:24:53;100223.47;;;25.39
48894;BMP280;34710;35.798;139.446;2023-06-10T07:27:19;100220.71;;;25.58
48894;BMP280;34710;35.798;139.446;2023-06-10T07:29:43;100220.05;;;24.95
48894;BMP280;34710;35.798;139.446;2023-06-10T07:32:09;100215.11;;;25.19
48894;BMP280;34710;35.798;139.446;2023-06-10T07:34:34;100209.40;;;26.20
48894;BMP280;34710;35.798;139.446;2023-06-10T07:37:00;100209.39;;;25.87
48894;BMP280;34710;35.798;139.446;2023-06-10T07:39:25;100206.55;;;26.76
48894;BMP280;34710;35.798;139.446;2023-06-10T07:41:50;100210.15;;;25.99
48894;BMP280;34710;35.798;139.446;2023-06-10T07:44:15;100209.63;;;25.46
48894;BMP280;34710;35.798;139.446;2023-06-10T07:46:41;100204.99;;;27.20
48894;BMP280;34710;35.798;139.446;2023-06-10T07:49:06;100203.27;;;25.92
48894;BMP280;34710;35.798;139.446;2023-06-10T07:51:32;100196.43;;;25.43
48894;BMP280;34710;35.798;139.446;2023-06-10T07:53:56;100193.42;;;23.74
48894;BMP280;34710;35.798;139.446;2023-06-10T07:56:22;100188.66;;;24.91
48894;BMP280;34710;35.798;139.446;2023-06-10T07:58:48;100192.79;;;25.50
48894;BMP280;34710;35.798;139.446;2023-06-10T08:01:13;100193.26;;;24.53
48894;BMP280;34710;35.798;139.446;2023-06-10T08:03:38;100199.26;;;24.53
48894;BMP280;34710;35.798;139.446;2023-06-10T08:06:04;100205.73;;;23.96
48894;BMP280;34710;35.798;139.446;2023-06-10T08:08:29;100214.98;;;25.60
48894;BMP280;34710;35.798;139.446;2023-06-10T08:10:55;100218.81;;;25.82
48894;BMP280;34710;35.798;139.446;2023-06-10T08:13:20;100223.91;;;25.01
48894;BMP280;34710;35.798;139.446;2023-06-10T08:15:45;100229.44;;;23.84
48894;BMP280;34710;35.798;139.446;2023-06-10T08:18:10;100230.67;;;24.61
48894;BMP280;34710;35.798;139.446;2023-06-10T08:20:36;100231.40;;;26.21
48894;BMP280;34710;35.798;139.446;2023-06-10T08:23:01;100230.31;;;25.11
48894;BMP280;34710;35.798;139.446;2023-06-10T08:25:26;100238.60;;;25.31
48894;BMP280;34710;35.798;139.446;2023-06-10T08:27:52;100245.93;;;25.03
48894;BMP280;34710;35.798;139.446;2023-06-10T08:30:17;100246.79;;;24.84
48894;BMP280;34710;35.798;139.446;2023-06-10T08:32:43;100247.24;;;25.70
48894;BMP280;34710;35.798;139.446;2023-06-10T08:35:08;100247.39;;;25.16
48894;BMP280;34710;35.798;139.446;2023-06-10T08:37:34;100257.41;;;25.00
48894;BMP280;34710;35.798;139.446;2023-06-10T08:39:59;100258.20;;;25.90
48894;BMP280;34710;35.798;139.446;2023-06-10T08:42:28;100263.47;;;26.09
48894;BMP280;34710;35.798;139.446;2023-06-10T08:44:53;100263.12;;;24.24
48894;BMP280;34710;35.798;139.446;2023-06-10T08:47:16;100269.06;;;23.91
48894;BMP280;34710;35.798;139.446;2023-06-10T08:49:43;100280.41;;;23.78
48894;BMP280;34710;35.798;139.446;2023-06-10T08:52:07;100291.66;;;24.88
48894;BMP280;34710;35.798;139.446;2023-06-10T08:54:33;100294.14;;;24.76
48894;BMP280;34710;35.798;139.446;2023-06-10T08:56:59;100296.43;;;25.13
48894;BMP280;34710;35.798;139.446;2023-06-10T08:59:23;100299.18;;;24.01
48894;BMP280;34710;35.798;139.446;2023-06-10T09:01:48;100303.56;;;23.98
48894;BMP280;34710;35.798;139.446;2023-06-10T09:04:13;100312.91;;;24.30
48894;BMP280;34710;35.798;139.446;2023-06-10T09:06:40;100311.11;;;23.45
48894;BMP280;34710;35.798;139.446;2023-06-10T09:09:04;100308.99;;;23.31
48894;BMP280;34710;35.798;139.446;2023-06-10T09:11:30;100310.82;;;23.48
48894;BMP280;34710;35.798;139.446;2023-06-10T09:13:55;100314.19;;;24.42
48894;BMP280;34710;35.798;139.446;2023-06-10T09:16:21;100314.51;;;22.77
48894;BMP280;34710;35.798;139.446;2023-06-10T09:18:47;100314.59;;;22.87
48894;BMP280;34710;35.798;139.446;2023-06-10T09:21:12;100307.29;;;22.09
48894;BMP280;34710;35.798;139.446;2023-06-10T09:23:38;100300.25;;;23.56
48894;BMP280;34710;35.798;139.446;2023-06-10T09:26:02;100299.07;;;24.04
48894;BMP280;34710;35.798;139.446;2023-06-10T09:28:27;100301.84;;;24.44
48894;BMP280;34710;35.798;139.446;2023-06-10T09:31:03;100308.11;;;23.97
48894;BMP280;34710;35.798;139.446;2023-06-10T09:33:18;100316.40;;;23.94
48894;BMP280;34710;35.798;139.446;2023-06-10T09:35:47;100324.19;;;23.28
48894;BMP280;34710;35.798;139.446;2023-06-10T09:38:09;100331.99;;;23.48
48894;BMP280;34710;35.798;139.446;2023-06-10T09:40:43;100335.46;;;23.35
48894;BMP280;34710;35.798;139.446;2023-06-10T09:43:00;100336.84;;;23.05
48894;BMP280;34710;35.798;139.446;2023-06-10T09:45:29;100341.64;;;21.94
48894;BMP280;34710;35.798;139.446;2023-06-10T09:47:53;100340.37;;;21.80
48894;BMP280;34710;35.798;139.446;2023-06-10T09:50:16;100333.50;;;22.73
48894;BMP280;34710;35.798;139.446;2023-06-10T09:52:41;100325.28;;;22.57
48894;BMP280;34710;35.798;139.446;2023-06-10T09:55:09;100323.34;;;23.64
48894;BMP280;34710;35.798;139.446;2023-06-10T09:57:33;100319.68;;;22.58
48894;BMP280;34710;35.798;139.446;2023-06-10T09:59:57;100315.33;;;23.66
48894;BMP280;34710;35.798;139.446;2023-06-10T10:02:24;100316.28;;;22.59
48894;BMP280;34710;35.798;139.446;2023-06-10T10:04:49;100319.14;;;22.28
48894;BMP280;34710;35.798;139.446;2023-06-10T10:07:15;100314.17;;;22.91
48894;BMP280;34710;35.798;139.446;2023-06-10T10:09:39;100319.80;;;23.05
48894;BMP280;34710;35.798;139.446;2023-06-10T10:12:08;100321.56;;;23.15
48894;BMP280;34710;35.798;139.446;2023-06-10T10:14:33;100319.50;;;22.22
48894;BMP280;34710;35.798;139.446;2023-06-10T10:16:56;100323.92;;;21.80
48894;BMP280;34710;35.798;139.446;2023-06-10T10:19:25;100323.23;;;22.93
48894;BMP280;34710;35.798;139.446;2023-06-10T10:21:52;100326.88;;;22.26
48894;BMP280;34710;35.798;139.446;2023-06-10T10:24:16;100329.81;;;23.14
48894;BMP280;34710;35.798;139.446;2023-06-10T10:26:37;100331.32;;;23.61
48894;BMP280;34710;35.798;139.446;2023-06-10T10:29:10;100339.34;;;23.65
48894;BMP280;34710;35.798;139.446;2023-06-10T10:31:28;100344.29;;;23.80
48894;BMP280;34710;35.798;139.446;2023-06-10T10:33:57;100343.40;;;23.63
48894;BMP280;34710;35.798;139.446;2023-06-10T10:36:17;100341.66;;;23.86
48894;BMP280;34710;35.798;139.446;2023-06-10T10:38:43;100339.96;;;23.41
48894;BMP280;34710;35.798;139.446;2023-06-10T10:41:08;100340.97;;;22.29
48894;BMP280;34710;35.798;139.446;2023-06-10T10:43:33;100343.70;;;24.04
48894;BMP280;34710;35.798;139.446;2023-06-10T10:46:01;100347.30;;;23.84
48894;BMP280;34710;35.798;139.446;2023-06-10T10:48:23;100349.29;;;24.00
48894;BMP280;34710;35.798;139.446;2023-06-10T10:50:56;100349.40;;;23.96
48894;BMP280;34710;35.798;139.446;2023-06-10T10:53:20;100356.13;;;24.60
48894;BMP280;34710;35.798;139.446;2023-06-10T10:55:39;100360.38;;;24.64
48894;BMP280;34710;35.798;139.446;2023-06-10T10:58:05;100355.47;;;23.13
48894;BMP280;34710;35.798;139.446;2023-06-10T11:00:30;100353.20;;;23.30
48894;BMP280;34710;35.798;139.446;2023-06-10T11:02:54;100356.23;;;22.84
48894;BMP280;34710;35.798;139.446;2023-06-10T11:05:20;100365.08;;;23.15
48894;BMP280;34710;35.798;139.446;2023-06-10T11:07:52;100370.77;;;21.76
48894;BMP280;34710;35.798;139.446;2023-06-10T11:10:11;100368.28;;;22.20
48894;BMP280;34710;35.798;139.446;2023-06-10T11:15:00;100367.63;;;22.90
48894;BMP280;34710;35.798;139.446;2023-06-10T11:17:26;100360.49;;;23.27
48894;BMP280;34710;35.798;139.446;2023-06-10T11:19:51;100358.62;;;22.67
48894;BMP280;34710;35.798;139.446;2023-06-10T11:22:18;100356.14;;;23.30
48894;BMP280;34710;35.798;139.446;2023-06-10T11:24:41;100358.58;;;24.34
48894;BMP280;34710;35.798;139.446;2023-06-10T11:27:16;100364.26;;;24.33
48894;BMP280;34710;35.798;139.446;2023-06-10T11:29:31;100367.01;;;23.51
48894;BMP280;34710;35.798;139.446;2023-06-10T11:31:57;100374.81;;;23.60
48894;BMP280;34710;35.798;139.446;2023-06-10T11:34:25;100373.75;;;23.32
48894;BMP280;34710;35.798;139.446;2023-06-10T11:36:47;100368.11;;;22.11
48894;BMP280;34710;35.798;139.446;2023-06-10T11:39:12;100366.86;;;21.05
48894;BMP280;34710;35.798;139.446;2023-06-10T11:41:38;100360.56;;;21.83
48894;BMP280;34710;35.798;139.446;2023-06-10T11:44:06;100367.95;;;21.82
48894;BMP280;34710;35.798;139.446;2023-06-10T11:46:27;100361.54;;;22.19
48894;BMP280;34710;35.798;139.446;2023-06-10T11:48:54;100365.91;;;22.59
48894;BMP280;34710;35.798;139.446;2023-06-10T11:51:18;100371.63;;;20.62
48894;BMP280;34710;35.798;139.446;2023-06-10T11:53:45;100376.27;;;21.40
48894;BMP280;34710;35.798;139.446;2023-06-10T11:56:08;100382.77;;;22.17
48894;BMP280;34710;35.798;139.446;2023-06-10T11:58:33;100378.03;;;23.35
48894;BMP280;34710;35.798;139.446;2023-06-10T12:00:59;100386.14;;;21.64
48894;BMP280;34710;35.798;139.446;2023-06-10T12:03:24;100381.27;;;21.79
48894;BMP280;34710;35.798;139.446;2023-06-10T12:05:59;100381.42;;;21.41
48894;BMP280;34710;35.798;139.446;2023-06-10T12:08:14;100377.32;;;23.12
48894;BMP280;34710;35.798;139.446;2023-06-10T12:10:41;100390.53;;;22.64
48894;BMP280;34710;35.798;139.446;2023-06-10T12:13:05;100396.80;;;22.39
48894;BMP280;34710;35.798;139.446;2023-06-10T12:15:30;100404.14;;;23.54
48894;BMP280;34710;35.798;139.446;2023-06-10T12:17:56;100408.84;;;23.55
48894;BMP280;34710;35.798;139.446;2023-06-10T12:20:28;100409.43;;;23.18
48894;BMP280;34710;35.798;139.446;2023-06-10T12:22:47;100411.43;;;22.31
48894;BMP280;34710;35.798;139.446;2023-06-10T12:25:13;100414.84;;;22.73
48894;BMP280;34710;35.798;139.446;2023-06-10T12:27:38;100413.24;;;22.33
48894;BMP280;34710;35.798;139.446;2023-06-10T12:30:05;100414.62;;;23.14
48894;BMP280;34710;35.798;139.446;2023-06-10T12:32:37;100416.25;;;23.56
48894;BMP280;34710;35.798;139.446;2023-06-10T12:35:02;100418.30;;;23.07
48894;BMP280;34710;35.798;139.446;2023-06-10T12:37:19;100421.06;;;23.11
48894;BMP280;34710;35.798;139.446;2023-06-10T12:39:51;100420.82;;;22.51
48894;BMP280;34710;35.798;139.446;2023-06-10T12:42:12;100420.31;;;21.12
48894;BMP280;34710;35.798;139.446;2023-06-10T12:44:38;100418.79;;;22.29
48894;BMP280;34710;35.798;139.446;2023-06-10T12:47:00;100415.44;;;23.15
48894;BMP280;34710;35.798;139.446;2023-06-10T12:49:26;100412.04;;;23.00
48894;BMP280;34710;35.798;139.446;2023-06-10T12:51:51;100414.02;;;23.42
48894;BMP280;34710;35.798;139.446;2023-06-10T12:54:16;100416.35;;;23.55
48894;BMP280;34710;35.798;139.446;2023-06-10T12:56:41;100421.38;;;23.81
48894;BMP280;34710;35.798;139.446;2023-06-10T12:59:07;100424.16;;;22.38
48894;BMP280;34710;35.798;139.446;2023-06-10T13:01:31;100422.28;;;23.68
48894;BMP280;34710;35.798;139.446;2023-06-10T13:03:57;100417.06;;;24.00
48894;BMP280;34710;35.798;139.446;2023-06-10T13:06:22;100420.20;;;24.42
48894;BMP280;34710;35.798;139.446;2023-06-10T13:08:47;100422.73;;;23.97
48894;BMP280;34710;35.798;139.446;2023-06-10T13:11:12;100421.05;;;24.69
48894;BMP280;34710;35.798;139.446;2023-06-10T13:13:38;100416.85;;;24.83
48894;BMP280;34710;35.798;139.446;2023-06-10T13:16:02;100412.77;;;24.98
48894;BMP280;34710;35.798;139.446;2023-06-10T13:18:27;100411.57;;;24.28
48894;BMP280;34710;35.798;139.446;2023-06-10T13:20:52;100406.60;;;23.30
48894;BMP280;34710;35.798;139.446;2023-06-10T13:23:18;100402.78;;;23.67